Time;durP1;ratioP1;P1;durP2;ratioP2;P2;SDS_P1;SDS_P2;PMS_P1;PMS_P2;Temp;Humidity;BMP_temperature;BMP_pressure;BME280_temperature;BME280_humidity;BME280_pressure;Samples;Min_cycle;Max_cycle;Signal;HPM_P1;HPM_P2
2022/06/20 00:01:21;;;;;;;;;;;15.80;99.90;;;;;;5015186;28;20029;-72
2022/06/20 00:03:50;;;;;;;7.32;3.90;;;15.90;99.90;;;;;;5016085;28;19941;-72
2022/06/20 00:06:20;;;;;;;7.30;4.35;;;16.00;99.90;;;;;;5016109;28;20026;-73
2022/06/20 00:08:51;;;;;;;7.97;3.72;;;16.00;99.90;;;;;;5016024;28;20100;-72
2022/06/20 00:11:25;;;;;;;9.50;3.80;;;15.80;99.90;;;;;;5016113;28;20018;-73
2022/06/20 00:13:55;;;;;;;8.63;4.32;;;15.90;99.90;;;;;;5014590;28;20025;-72
2022/06/20 00:16:23;;;;;;;10.65;4.38;;;16.00;99.90;;;;;;5015960;28;20113;-73
2022/06/20 00:18:53;;;;;;;10.13;4.43;;;15.90;99.90;;;;;;5015831;28;20033;-74
2022/06/20 00:21:23;;;;;;;8.57;4.45;;;15.80;99.90;;;;;;5015928;28;20025;-73
2022/06/20 00:23:50;;;;;;;12.15;4.32;;;15.80;99.90;;;;;;5014435;28;20096;-73
2022/06/20 00:26:18;;;;;;;8.00;4.07;;;15.80;99.90;;;;;;5015811;28;20048;-73
2022/06/20 00:28:46;;;;;;;7.82;4.30;;;15.80;99.90;;;;;;5015725;28;20028;-73
2022/06/20 00:31:14;;;;;;;13.23;5.10;;;15.90;99.90;;;;;;5014412;28;20494;-73
2022/06/20 00:33:43;;;;;;;7.82;4.20;;;15.80;99.90;;;;;;5014316;28;20052;-73
2022/06/20 00:36:11;;;;;;;9.05;3.83;;;15.90;99.90;;;;;;5014213;28;20029;-73
2022/06/20 00:38:38;;;;;;;6.47;3.60;;;16.10;99.90;;;;;;5015557;28;20044;-73
2022/06/20 00:41:15;;;;;;;10.38;4.53;;;16.20;99.90;;;;;;5015523;28;20028;-73
2022/06/20 00:43:51;;;;;;;8.98;4.70;;;16.30;99.90;;;;;;5015554;28;20032;-73
2022/06/20 00:46:49;;;;;;;10.90;4.28;;;16.40;99.90;;;;;;5014059;28;20400;-73
2022/06/20 00:49:45;;;;;;;9.48;4.70;;;16.40;99.90;;;;;;5015345;28;20510;-73
2022/06/20 00:52:42;;;;;;;9.27;4.47;;;16.50;99.90;;;;;;5006378;28;20126;-73
2022/06/20 00:55:31;;;;;;;9.55;4.70;;;16.70;99.90;;;;;;5013887;28;20037;-73
2022/06/20 00:58:24;;;;;;;8.40;3.78;;;16.70;99.90;;;;;;5014301;28;20575;-73
2022/06/20 01:00:51;;;;;;;9.48;3.95;;;16.70;99.90;;;;;;5013835;28;20032;-73
2022/06/20 01:03:22;;;;;;;8.68;3.70;;;16.40;99.90;;;;;;5015018;28;20500;-74
2022/06/20 01:06:13;;;;;;;7.50;3.40;;;16.60;99.90;;;;;;5014954;28;20060;-74
2022/06/20 01:09:05;;;;;;;10.27;4.45;;;16.70;99.90;;;;;;5013748;28;20049;-74
2022/06/20 01:11:57;;;;;;;11.20;3.85;;;16.70;99.90;;;;;;5014841;28;20065;-74
2022/06/20 01:14:34;;;;;;;16.77;4.03;;;16.90;99.90;;;;;;5015221;28;20122;-74
2022/06/20 01:17:28;;;;;;;7.40;2.55;;;17.10;99.90;;;;;;5013440;28;20548;-74
2022/06/20 01:20:17;;;;;;;10.45;3.22;;;17.30;99.90;;;;;;5007489;28;20038;-74
2022/06/20 01:23:02;;;;;;;12.07;4.30;;;17.50;99.90;;;;;;5013358;28;20478;-74
2022/06/20 01:25:41;;;;;;;8.75;4.15;;;17.50;99.90;;;;;;5013246;28;20033;-74
2022/06/20 01:28:12;;;;;;;9.63;4.00;;;17.50;99.90;;;;;;5013332;28;20022;-73
2022/06/20 01:30:44;;;;;;;8.65;4.10;;;17.40;99.90;;;;;;5014540;28;20022;-73
2022/06/20 01:33:17;;;;;;;10.60;3.55;;;17.40;99.90;;;;;;5014640;28;20026;-73
2022/06/20 01:38:32;;;;;;;7.10;2.50;;;17.40;99.90;;;;;;5014488;28;20033;-72
2022/06/20 01:43:49;;;;;;;8.45;3.75;;;17.20;99.90;;;;;;5014561;28;20029;-73
2022/06/20 01:46:17;;;;;;;7.20;2.65;;;17.10;99.90;;;;;;5014153;28;20032;-72
2022/06/20 01:48:59;;;;;;;10.48;3.13;;;17.00;99.90;;;;;;5014214;28;20030;-72
2022/06/20 01:51:49;;;;;;;6.78;2.85;;;16.80;99.90;;;;;;5012832;28;20447;-72
2022/06/20 01:54:18;;;;;;;7.88;3.42;;;16.80;99.90;;;;;;5014500;28;20025;-72
2022/06/20 01:56:49;;;;;;;8.85;3.03;;;16.70;99.90;;;;;;5014106;28;20030;-72
2022/06/20 01:59:27;;;;;;;7.72;2.63;;;16.70;99.90;;;;;;5013880;28;20140;-72
2022/06/20 02:01:54;;;;;;;6.30;2.92;;;16.70;99.90;;;;;;5014092;28;20116;-72
2022/06/20 02:04:27;;;;;;;7.60;2.35;;;16.70;99.90;;;;;;5013883;28;20033;-72
2022/06/20 02:06:55;;;;;;;7.63;2.38;;;16.50;99.90;;;;;;5014124;28;20022;-72
2022/06/20 02:09:23;;;;;;;9.30;2.22;;;16.30;99.90;;;;;;5013848;28;20416;-73
2022/06/20 02:11:50;;;;;;;7.53;2.35;;;16.20;99.90;;;;;;5013826;28;20022;-72
2022/06/20 02:14:20;;;;;;;7.68;2.42;;;16.00;99.90;;;;;;5013813;28;20026;-72
2022/06/20 02:16:55;;;;;;;8.15;2.25;;;15.90;99.90;;;;;;5013741;28;20033;-72
2022/06/20 02:19:29;;;;;;;5.82;1.77;;;15.80;99.90;;;;;;5012409;28;20026;-72
2022/06/20 02:22:02;;;;;;;5.78;2.00;;;15.70;99.90;;;;;;5013577;28;20029;-73
2022/06/20 02:24:34;;;;;;;6.32;1.70;;;15.70;99.90;;;;;;5013686;28;20026;-73
2022/06/20 02:27:03;;;;;;;4.65;1.80;;;15.80;99.90;;;;;;5012190;28;20474;-73
2022/06/20 02:29:32;;;;;;;7.15;2.60;;;15.80;99.90;;;;;;5012160;28;20113;-73
2022/06/20 02:32:10;;;;;;;8.70;2.80;;;15.80;99.90;;;;;;5012016;28;20033;-73
2022/06/20 02:34:38;;;;;;;8.63;3.05;;;15.90;99.90;;;;;;5013559;28;20037;-73
2022/06/20 02:37:10;;;;;;;8.43;1.77;;;15.90;99.90;;;;;;5011911;28;20076;-72
2022/06/20 02:39:42;;;;;;;5.95;1.50;;;15.70;99.90;;;;;;5012299;28;20037;-73
2022/06/20 02:42:23;;;;;;;5.22;1.15;;;15.60;99.90;;;;;;5013367;28;20116;-73
2022/06/20 02:44:51;;;;;;;6.80;1.85;;;15.60;99.90;;;;;;5012045;28;20101;-73
2022/06/20 02:47:23;;;;;;;6.18;1.13;;;15.60;99.90;;;;;;5013255;28;20022;-73
2022/06/20 02:49:54;;;;;;;7.80;1.70;;;15.60;99.90;;;;;;5013232;28;20034;-73
2022/06/20 02:52:30;;;;;;;8.02;2.08;;;15.60;99.90;;;;;;5011869;28;20022;-72
2022/06/20 02:54:58;;;;;;;7.25;1.25;;;15.50;99.90;;;;;;5013224;28;20022;-72
2022/06/20 02:57:31;;;;;;;8.75;1.52;;;15.60;99.90;;;;;;5011516;28;20053;-71
2022/06/20 03:00:00;;;;;;;7.20;1.63;;;15.70;99.90;;;;;;5011848;28;20022;-72
2022/06/20 03:02:33;;;;;;;7.15;1.58;;;15.70;99.90;;;;;;5011526;28;20033;-73
2022/06/20 03:05:01;;;;;;;5.03;1.10;;;15.90;99.90;;;;;;5013326;28;20378;-72
2022/06/20 03:07:36;;;;;;;3.72;1.08;;;16.00;99.90;;;;;;5013021;28;20018;-73
2022/06/20 03:10:32;;;;;;;6.10;1.27;;;16.10;99.90;;;;;;5011692;28;20034;-73
2022/06/20 03:13:00;;;;;;;6.72;1.40;;;16.20;99.90;;;;;;5011411;28;20061;-73
2022/06/20 03:15:30;;;;;;;4.15;0.80;;;16.30;99.90;;;;;;5011723;28;20036;-73
2022/06/20 03:17:58;;;;;;;5.15;1.17;;;16.40;99.90;;;;;;5012896;28;20030;-73
2022/06/20 03:20:27;;;;;;;4.30;1.02;;;16.50;99.90;;;;;;5011709;28;20164;-73
2022/06/20 03:23:21;;;;;;;9.68;1.58;;;16.50;99.90;;;;;;5016659;28;20033;-73
2022/06/20 03:25:50;;;;;;;4.60;1.10;;;16.60;99.90;;;;;;5015569;28;20030;-73
2022/06/20 03:28:20;;;;;;;8.02;1.50;;;16.70;99.90;;;;;;5015474;28;20034;-73
2022/06/20 03:30:49;;;;;;;5.88;1.08;;;16.60;99.90;;;;;;5017518;28;20030;-73
2022/06/20 03:33:18;;;;;;;9.07;1.30;;;16.60;99.90;;;;;;5016944;28;20105;-73
2022/06/20 03:35:57;;;;;;;7.25;1.00;;;16.60;99.90;;;;;;5015398;28;20026;-72
2022/06/20 03:38:25;;;;;;;4.68;0.80;;;16.40;99.90;;;;;;5015320;28;20029;-73
2022/06/20 03:40:53;;;;;;;6.40;0.88;;;16.40;99.90;;;;;;5016592;28;20099;-72
2022/06/20 03:43:24;;;;;;;6.13;1.00;;;16.50;99.90;;;;;;5015255;28;20026;-73
2022/06/20 03:45:58;;;;;;;4.57;0.85;;;16.60;99.90;;;;;;5015190;28;20387;-73
2022/06/20 03:48:36;;;;;;;6.07;1.83;;;16.70;99.90;;;;;;5015170;28;20026;-73
2022/06/20 03:51:21;;;;;;;5.45;1.13;;;16.80;99.90;;;;;;5015132;28;20034;-72
2022/06/20 03:53:55;;;;;;;7.50;1.58;;;16.90;99.90;;;;;;5016388;28;20014;-72
2022/06/20 03:56:33;;;;;;;4.97;1.00;;;17.00;99.90;;;;;;5015002;28;20026;-72
2022/06/20 03:59:15;;;;;;;7.38;1.23;;;17.00;99.90;;;;;;5015935;28;20053;-72
2022/06/20 04:01:50;;;;;;;4.18;0.90;;;17.00;99.90;;;;;;5016718;28;20149;-72
2022/06/20 04:04:37;;;;;;;4.88;1.13;;;16.90;99.90;;;;;;5016116;28;20033;-72
2022/06/20 04:07:11;;;;;;;5.30;1.20;;;16.90;99.90;;;;;;5016758;28;20021;-71
2022/06/20 04:12:38;;;;;;;7.30;1.30;;;17.00;99.90;;;;;;5016050;28;20068;-72
2022/06/20 04:15:17;;;;;;;4.90;1.30;;;17.00;99.90;;;;;;5015920;28;20045;-72
2022/06/20 04:18:29;;;;;;;6.38;1.20;;;16.90;99.90;;;;;;5014655;28;20442;-72
2022/06/20 04:20:59;;;;;;;3.50;0.90;;;16.90;99.90;;;;;;5015901;28;20112;-72
2022/06/20 04:23:37;;;;;;;5.00;1.30;;;17.00;99.90;;;;;;5016287;28;20030;-72
2022/06/20 04:26:57;;;;;;;7.20;1.35;;;17.10;99.90;;;;;;5015955;28;20030;-72
2022/06/20 04:29:45;;;;;;;7.97;1.42;;;17.10;99.90;;;;;;4993609;28;20037;-71
2022/06/20 04:32:20;;;;;;;6.93;1.35;;;16.80;99.90;;;;;;5015412;28;20018;-70
2022/06/20 04:35:00;;;;;;;7.93;1.40;;;16.70;99.90;;;;;;5015309;28;20127;-70
2022/06/20 04:37:59;;;;;;;4.45;0.98;;;16.50;99.90;;;;;;5014470;28;20094;-69
2022/06/20 04:40:45;;;;;;;7.53;0.93;;;16.40;99.90;;;;;;5012594;28;20112;-69
2022/06/20 04:43:28;;;;;;;4.40;1.10;;;16.30;99.90;;;;;;5015812;28;20026;-70
2022/06/20 04:46:22;;;;;;;6.60;1.20;;;16.30;99.90;;;;;;5015416;28;20083;-70
2022/06/20 04:48:51;;;;;;;7.68;1.33;;;16.10;99.90;;;;;;5015404;28;20536;-70
2022/06/20 04:51:28;;;;;;;8.38;1.10;;;16.00;99.90;;;;;;5015295;28;20026;-70
2022/06/20 04:53:56;;;;;;;8.65;0.95;;;16.00;99.90;;;;;;5016272;28;20466;-70
2022/06/20 04:56:29;;;;;;;6.22;1.10;;;16.00;99.90;;;;;;5015201;28;20196;-71
2022/06/20 04:59:05;;;;;;;4.60;1.08;;;15.90;99.90;;;;;;5014992;28;20054;-71
2022/06/20 05:01:35;;;;;;;9.57;1.17;;;15.80;99.90;;;;;;5015019;28;20029;-71
2022/06/20 05:04:08;;;;;;;3.00;0.80;;;15.80;99.90;;;;;;5014976;28;20022;-71
2022/06/20 05:06:38;;;;;;;6.88;1.00;;;15.70;99.90;;;;;;5015364;28;20014;-71
2022/06/20 05:09:41;;;;;;;5.60;1.13;;;15.70;99.90;;;;;;5014997;28;20044;-71
2022/06/20 05:12:21;;;;;;;4.95;1.17;;;15.60;99.90;;;;;;5014901;28;20486;-71
2022/06/20 05:15:11;;;;;;;5.45;0.93;;;15.70;99.90;;;;;;5014955;28;20453;-71
2022/06/20 05:17:41;;;;;;;3.38;0.60;;;15.80;99.90;;;;;;5014387;28;20038;-71
2022/06/20 05:20:36;;;;;;;3.25;0.80;;;15.80;99.90;;;;;;5013386;28;20033;-71
2022/06/20 05:23:11;;;;;;;5.00;0.73;;;15.90;99.90;;;;;;5013302;28;20029;-71
2022/06/20 05:25:40;;;;;;;5.57;0.85;;;15.90;99.90;;;;;;5014881;28;20109;-71
2022/06/20 05:28:14;;;;;;;3.83;0.70;;;15.80;99.90;;;;;;5015040;28;20097;-71
2022/06/20 05:30:42;;;;;;;4.45;0.80;;;15.90;99.90;;;;;;5013253;28;20025;-71
2022/06/20 05:33:20;;;;;;;3.95;0.68;;;16.00;99.90;;;;;;5014468;28;20033;-71
2022/06/20 05:35:59;;;;;;;4.07;0.68;;;15.90;99.90;;;;;;5013648;28;20084;-70
2022/06/20 05:38:44;;;;;;;7.28;1.40;;;15.80;99.90;;;;;;5014531;28;20026;-71
2022/06/20 05:41:15;;;;;;;6.00;0.70;;;15.90;99.90;;;;;;5014674;28;20433;-71
2022/06/20 05:43:43;;;;;;;5.88;1.02;;;15.90;99.90;;;;;;5014291;28;20437;-70
2022/06/20 05:46:41;;;;;;;4.88;1.15;;;15.90;99.90;;;;;;5014219;28;20414;-71
2022/06/20 05:49:16;;;;;;;3.00;0.82;;;16.00;99.90;;;;;;5014228;28;20057;-71
2022/06/20 05:51:45;;;;;;;5.97;0.88;;;15.90;99.90;;;;;;5014196;28;20076;-71
2022/06/20 05:54:23;;;;;;;3.38;0.65;;;15.90;99.90;;;;;;5014090;28;20014;-71
2022/06/20 05:57:06;;;;;;;4.55;1.23;;;15.80;99.90;;;;;;5014323;28;20025;-71
2022/06/20 05:59:44;;;;;;;3.80;0.80;;;15.80;99.90;;;;;;5012838;28;20128;-72
2022/06/20 06:02:37;;;;;;;3.28;0.75;;;15.70;99.90;;;;;;5014063;28;20026;-72
2022/06/20 06:05:19;;;;;;;4.57;0.93;;;15.70;99.90;;;;;;5004883;28;20042;-71
2022/06/20 06:08:01;;;;;;;5.47;0.95;;;15.60;99.90;;;;;;5013929;28;20018;-72
2022/06/20 06:10:41;;;;;;;5.30;1.30;;;15.60;99.90;;;;;;5013883;28;20018;-71
2022/06/20 06:13:24;;;;;;;4.38;0.90;;;15.60;99.90;;;;;;5012469;28;20395;-71
2022/06/20 06:19:15;;;;;;;6.80;1.55;;;15.60;99.90;;;;;;5013765;28;20079;-71
2022/06/20 06:21:47;;;;;;;5.32;1.20;;;15.50;99.90;;;;;;5013300;28;20510;-70
2022/06/20 06:24:20;;;;;;;5.88;0.93;;;15.40;99.90;;;;;;5013634;28;20029;-70
2022/06/20 06:26:49;;;;;;;3.08;0.73;;;15.30;99.90;;;;;;5013718;28;20022;-70
2022/06/20 06:29:45;;;;;;;5.10;0.95;;;15.20;99.90;;;;;;5013540;28;20026;-71
2022/06/20 06:32:18;;;;;;;3.45;1.23;;;15.20;99.90;;;;;;5011630;28;20109;-71
2022/06/20 06:34:58;;;;;;;4.70;0.93;;;15.10;99.90;;;;;;5013454;28;20022;-71
2022/06/20 06:37:35;;;;;;;4.63;1.00;;;15.00;99.90;;;;;;5013501;28;20057;-71
2022/06/20 06:40:18;;;;;;;4.20;0.80;;;14.90;99.90;;;;;;5013602;28;20029;-71
2022/06/20 06:42:47;;;;;;;6.35;1.20;;;14.90;99.90;;;;;;5013465;28;20029;-71
2022/06/20 06:45:24;;;;;;;7.18;1.35;;;14.90;99.90;;;;;;5013280;28;20026;-71
2022/06/20 06:48:23;;;;;;;7.03;1.00;;;14.80;99.90;;;;;;5013509;28;20097;-71
2022/06/20 06:51:08;;;;;;;4.47;1.33;;;14.80;99.90;;;;;;5005340;28;20038;-71
2022/06/20 06:54:08;;;;;;;7.35;1.05;;;14.80;99.90;;;;;;5013260;28;20022;-71
2022/06/20 06:56:42;;;;;;;5.32;1.15;;;14.70;99.90;;;;;;4986697;28;20033;-71
2022/06/20 06:59:22;;;;;;;6.47;1.30;;;14.80;99.90;;;;;;5013238;28;20092;-71
2022/06/20 07:01:55;;;;;;;8.35;1.38;;;14.70;99.90;;;;;;5013129;28;20044;-70
2022/06/20 07:04:40;;;;;;;6.38;1.15;;;14.60;99.90;;;;;;5013201;28;20030;-70
2022/06/20 07:07:28;;;;;;;8.48;1.10;;;14.60;99.90;;;;;;5013070;28;20078;-70
2022/06/20 07:09:57;;;;;;;6.57;1.15;;;14.50;99.90;;;;;;5013078;28;20099;-70
2022/06/20 07:12:33;;;;;;;4.70;1.00;;;14.40;99.90;;;;;;5013080;28;20022;-70
2022/06/20 07:15:19;;;;;;;7.88;1.35;;;14.30;99.90;;;;;;5013175;28;20018;-70
2022/06/20 07:18:05;;;;;;;6.45;1.00;;;14.20;99.90;;;;;;5011697;28;20394;-70
2022/06/20 07:20:39;;;;;;;6.15;1.35;;;14.10;99.90;;;;;;5011639;28;20148;-70
2022/06/20 07:23:12;;;;;;;6.07;1.27;;;14.00;99.90;;;;;;5011716;28;20030;-73
2022/06/20 07:25:43;;;;;;;6.22;1.60;;;13.90;99.90;;;;;;5012757;28;20108;-73
2022/06/20 07:28:13;;;;;;;5.07;1.35;;;13.80;99.90;;;;;;5011599;28;20481;-73
2022/06/20 07:30:46;;;;;;;4.20;1.10;;;13.80;99.90;;;;;;5013108;28;20474;-74
2022/06/20 07:34:00;;;;;;;4.90;1.48;;;13.70;99.90;;;;;;5011503;28;20022;-73
2022/06/20 07:36:34;;;;;;;5.25;1.90;;;13.70;99.90;;;;;;4997169;28;20037;-73
2022/06/20 07:39:12;;;;;;;6.05;1.80;;;13.60;99.90;;;;;;5011507;28;20036;-73
2022/06/20 07:41:52;;;;;;;7.18;2.22;;;13.50;99.90;;;;;;5013064;28;20076;-73
2022/06/20 07:44:42;;;;;;;8.55;2.10;;;13.50;99.90;;;;;;5011385;28;20128;-73
2022/06/20 07:47:18;;;;;;;4.95;2.15;;;13.40;99.90;;;;;;5012636;28;20022;-72
2022/06/20 07:49:48;;;;;;;6.63;2.47;;;13.30;99.90;;;;;;5011299;28;20072;-72
2022/06/20 07:52:47;;;;;;;6.20;1.83;;;13.20;99.90;;;;;;5012650;28;20512;-72
2022/06/20 07:55:22;;;;;;;8.07;2.10;;;13.10;99.90;;;;;;5001058;28;20040;-73
2022/06/20 07:58:03;;;;;;;11.38;2.75;;;13.10;99.90;;;;;;5012748;28;20053;-72
2022/06/20 08:00:42;;;;;;;4.10;2.20;;;13.00;99.90;;;;;;5011401;28;20132;-72
2022/06/20 08:03:24;;;;;;;7.60;2.47;;;13.00;99.90;;;;;;5012553;28;20414;-72
2022/06/20 08:06:21;;;;;;;9.50;2.70;;;13.00;99.90;;;;;;5012555;28;20033;-72
2022/06/20 08:09:03;;;;;;;8.15;2.78;;;12.90;99.90;;;;;;4998879;28;20112;-73
2022/06/20 08:11:54;;;;;;;11.98;3.20;;;12.90;99.90;;;;;;5016224;28;20018;-72
2022/06/20 08:14:34;;;;;;;12.38;3.45;;;12.90;99.90;;;;;;5016017;28;20022;-71
2022/06/20 08:17:08;;;;;;;10.77;3.78;;;12.90;99.90;;;;;;5016069;28;20061;-71
2022/06/20 08:19:37;;;;;;;8.90;3.08;;;12.90;99.90;;;;;;5014739;28;20147;-71
2022/06/20 08:22:17;;;;;;;6.75;2.78;;;13.00;99.90;;;;;;5016000;28;20025;-71
2022/06/20 08:25:08;;;;;;;8.98;2.55;;;12.90;99.90;;;;;;5014550;28;20137;-71
2022/06/20 08:27:50;;;;;;;6.47;2.65;;;12.90;99.90;;;;;;5014394;28;20026;-71
2022/06/20 08:30:28;;;;;;;9.57;3.10;;;13.00;99.90;;;;;;5016034;28;20022;-71
2022/06/20 08:33:05;;;;;;;13.32;3.45;;;13.00;99.90;;;;;;5015891;28;20018;-70
2022/06/20 08:35:39;;;;;;;6.60;2.60;;;13.00;99.90;;;;;;5014420;28;20503;-71
2022/06/20 08:38:28;;;;;;;8.63;3.00;;;12.90;99.90;;;;;;5014338;28;20125;-70
2022/06/20 08:41:38;;;;;;;16.05;3.45;;;12.90;99.90;;;;;;5016162;28;20030;-71
2022/06/20 08:44:23;;;;;;;7.28;2.55;;;13.00;99.90;;;;;;5015516;28;20022;-72
2022/06/20 08:47:12;;;;;;;7.18;2.20;;;13.00;99.90;;;;;;5014082;28;20030;-71
2022/06/20 08:49:57;;;;;;;10.73;2.78;;;12.90;99.90;;;;;;5014012;28;20051;-71
2022/06/20 08:52:46;;;;;;;8.13;2.50;;;13.00;99.90;;;;;;5015256;28;20029;-71
2022/06/20 08:55:35;;;;;;;10.43;3.22;;;13.00;99.90;;;;;;5015329;28;20079;-70
2022/06/20 08:58:31;;;;;;;11.98;3.78;;;13.00;99.90;;;;;;5014980;28;20049;-71
2022/06/20 09:01:27;;;;;;;9.48;3.22;;;13.00;99.90;;;;;;5013903;28;20050;-71
2022/06/20 09:04:19;;;;;;;9.57;3.20;;;13.00;99.90;;;;;;5015159;28;20033;-71
2022/06/20 09:07:08;;;;;;;11.65;3.60;;;13.00;99.90;;;;;;5015144;28;20022;-72
2022/06/20 09:09:56;;;;;;;8.30;3.25;;;12.90;99.90;;;;;;5013634;28;20034;-70
2022/06/20 09:12:31;;;;;;;10.75;3.53;;;12.90;99.90;;;;;;5015298;28;20394;-73
2022/06/20 09:15:10;;;;;;;6.25;3.00;;;12.90;99.90;;;;;;5015283;28;20455;-70
2022/06/20 09:17:57;;;;;;;11.15;4.60;;;12.80;99.90;;;;;;5015213;28;20022;-70
2022/06/20 09:20:39;;;;;;;9.38;4.10;;;12.70;99.90;;;;;;5014219;28;20030;-70
2022/06/20 09:23:20;;;;;;;10.70;3.65;;;12.70;99.90;;;;;;5014867;28;20022;-70
2022/06/20 09:26:03;;;;;;;9.95;3.22;;;12.50;99.90;;;;;;5015245;28;20108;-72
2022/06/20 09:28:53;;;;;;;11.63;4.00;;;12.50;99.90;;;;;;5013348;28;20026;-71
2022/06/20 09:31:29;;;;;;;11.57;4.07;;;12.40;99.90;;;;;;5014642;28;20018;-70
2022/06/20 09:34:14;;;;;;;8.48;3.55;;;12.30;99.90;;;;;;5014604;28;20029;-71
2022/06/20 09:37:05;;;;;;;10.13;4.13;;;12.20;99.90;;;;;;5014783;28;20025;-71
2022/06/20 09:39:49;;;;;;;6.32;3.20;;;12.20;99.90;;;;;;5014780;28;20051;-70
2022/06/20 09:42:38;;;;;;;7.38;3.95;;;12.10;99.90;;;;;;5015000;28;20013;-70
2022/06/20 09:45:15;;;;;;;6.75;3.10;;;12.00;99.90;;;;;;5014332;28;20368;-70
2022/06/20 09:47:54;;;;;;;7.32;3.97;;;12.00;99.90;;;;;;5013017;28;20022;-70
2022/06/20 09:50:39;;;;;;;7.35;3.45;;;12.00;99.90;;;;;;5014393;28;20092;-71
2022/06/20 09:53:32;;;;;;;8.55;3.53;;;11.90;99.90;;;;;;5012961;28;20018;-71
2022/06/20 09:56:05;;;;;;;10.63;4.22;;;11.80;99.90;;;;;;5012827;28;20029;-71
2022/06/20 09:59:09;;;;;;;9.25;3.53;;;11.80;99.90;;;;;;5014082;28;20096;-71
2022/06/20 10:02:11;;;;;;;9.43;3.50;;;11.80;99.90;;;;;;5014600;28;20033;-71
2022/06/20 10:04:59;;;;;;;9.35;4.10;;;11.80;99.90;;;;;;5013995;28;20026;-71
2022/06/20 10:07:46;;;;;;;9.55;4.78;;;11.80;99.90;;;;;;5012767;28;20022;-73
2022/06/20 10:10:19;;;;;;;13.35;5.70;;;11.80;99.90;;;;;;5014016;28;20092;-72
2022/06/20 10:13:08;;;;;;;11.57;5.40;;;11.80;99.90;;;;;;5014005;28;20018;-72
2022/06/20 10:15:56;;;;;;;12.20;6.18;;;11.70;99.90;;;;;;5012600;28;20074;-73
2022/06/20 10:18:44;;;;;;;12.23;6.35;;;11.60;99.90;;;;;;5014091;28;20156;-72
2022/06/20 10:21:18;;;;;;;11.82;6.65;;;11.60;99.90;;;;;;5012421;28;20029;-72
2022/06/20 10:24:35;;;;;;;16.63;9.85;;;11.60;99.90;;;;;;5012324;28;20037;-72
2022/06/20 10:27:22;;;;;;;12.82;6.85;;;11.60;99.90;;;;;;4972625;28;20427;-72
2022/06/20 10:30:05;;;;;;;11.73;6.20;;;11.50;99.90;;;;;;5013984;28;20022;-72
2022/06/20 10:32:41;;;;;;;13.80;6.95;;;11.50;99.90;;;;;;5011694;28;20030;-71
2022/06/20 10:35:25;;;;;;;12.57;6.20;;;11.40;99.90;;;;;;5012254;28;20549;-72
2022/06/20 10:38:11;;;;;;;12.60;6.57;;;11.50;99.90;;;;;;5013774;28;20014;-72
2022/06/20 10:41:04;;;;;;;10.50;5.47;;;11.40;99.90;;;;;;5013578;28;20018;-72
2022/06/20 10:43:43;;;;;;;9.05;4.50;;;11.40;99.90;;;;;;5012020;28;20486;-73
2022/06/20 10:46:40;;;;;;;13.40;5.75;;;11.40;99.90;;;;;;5012067;28;20497;-71
2022/06/20 10:49:35;;;;;;;10.70;6.38;;;11.30;99.90;;;;;;5013378;28;20022;-72
2022/06/20 10:52:24;;;;;;;10.15;5.78;;;11.20;99.90;;;;;;5013336;28;20029;-72
2022/06/20 10:55:01;;;;;;;11.13;5.82;;;11.20;99.90;;;;;;5013548;28;20025;-71
2022/06/20 10:57:49;;;;;;;17.17;7.82;;;11.20;99.90;;;;;;5013231;28;20134;-72
2022/06/20 11:00:22;;;;;;;16.50;8.65;;;11.20;99.90;;;;;;5011892;28;20108;-71
2022/06/20 11:03:19;;;;;;;13.98;10.10;;;11.30;99.90;;;;;;5013588;28;20028;-71
2022/06/20 11:05:59;;;;;;;12.82;7.03;;;11.30;99.90;;;;;;5013154;28;20026;-72
2022/06/20 11:08:36;;;;;;;14.50;6.97;;;11.30;99.90;;;;;;5013268;28;20043;-72
2022/06/20 11:11:10;;;;;;;11.88;6.70;;;11.20;99.90;;;;;;5011709;28;20282;-72
2022/06/20 11:14:12;;;;;;;12.00;6.50;;;11.20;99.90;;;;;;5013451;28;20022;-72
2022/06/20 11:16:48;;;;;;;10.80;6.70;;;11.10;99.90;;;;;;5009145;28;20038;-72
2022/06/20 11:19:37;;;;;;;13.10;6.68;;;11.10;99.90;;;;;;5013288;28;20023;-72
2022/06/20 11:22:15;;;;;;;10.55;6.47;;;11.00;99.90;;;;;;5013260;28;20529;-72
2022/06/20 11:25:07;;;;;;;11.68;6.25;;;11.00;99.90;;;;;;5013244;28;20033;-72
2022/06/20 11:27:43;;;;;;;12.38;6.40;;;11.00;99.90;;;;;;5012282;28;20383;-71
2022/06/20 11:30:22;;;;;;;13.77;7.47;;;11.00;99.90;;;;;;5012992;28;20389;-71
2022/06/20 11:33:03;;;;;;;14.60;7.30;;;11.10;99.90;;;;;;5011650;28;20022;-72
2022/06/20 11:35:33;;;;;;;;;;;11.00;99.90;;;;;;5013567;28;20057;-72
2022/06/20 11:38:17;;;;;;;13.85;6.57;;;11.00;99.90;;;;;;5013159;28;19905;-72
2022/06/20 11:41:01;;;;;;;11.55;5.30;;;11.00;99.90;;;;;;5012928;28;20053;-72
2022/06/20 11:43:34;;;;;;;10.77;5.95;;;10.90;99.90;;;;;;5014461;28;20092;-72
2022/06/20 11:46:38;;;;;;;12.85;5.97;;;10.90;99.90;;;;;;5017113;28;20049;-72
2022/06/20 11:49:38;;;;;;;15.80;9.02;;;10.80;99.90;;;;;;5017161;28;20144;-72
2022/06/20 11:52:30;;;;;;;31.00;22.35;;;10.90;99.90;;;;;;5015245;28;20029;-72
2022/06/20 11:55:28;;;;;;;18.05;12.98;;;10.90;99.90;;;;;;5015139;28;20376;-71
2022/06/20 11:58:13;;;;;;;22.48;14.70;;;10.90;99.90;;;;;;5014865;28;20392;-71
2022/06/20 12:00:55;;;;;;;19.63;12.35;;;10.90;99.90;;;;;;5016563;28;20435;-72
2022/06/20 12:03:35;;;;;;;20.63;12.55;;;10.80;99.90;;;;;;5016869;28;20021;-73
2022/06/20 12:06:08;;;;;;;12.35;8.48;;;10.80;99.90;;;;;;5014949;28;20033;-73
2022/06/20 12:08:44;;;;;;;11.68;7.68;;;10.70;99.90;;;;;;5014948;28;20049;-71
2022/06/20 12:11:17;;;;;;;16.77;8.02;;;10.70;99.90;;;;;;5016729;28;20425;-72
2022/06/20 12:14:14;;;;;;;12.70;8.02;;;10.60;99.90;;;;;;5014765;28;20375;-71
2022/06/20 12:17:21;;;;;;;14.30;8.10;;;10.60;99.90;;;;;;5002558;28;20403;-71
2022/06/20 12:25:32;;;;;;;14.15;7.80;;;10.60;99.90;;;;;;5016189;28;20276;-72
2022/06/20 12:28:00;;;;;;;15.80;8.50;;;10.50;99.90;;;;;;5014617;28;20057;-72
2022/06/20 12:30:30;;;;;;;15.40;7.60;;;10.60;99.90;;;;;;5014588;28;20022;-72
2022/06/20 12:32:59;;;;;;;12.10;8.20;;;10.60;99.90;;;;;;5014491;28;20060;-72
2022/06/20 12:35:47;;;;;;;12.98;7.13;;;10.60;99.90;;;;;;5014429;28;20026;-73
2022/06/20 12:38:26;;;;;;;11.70;6.43;;;10.50;99.90;;;;;;5015697;28;20486;-74
2022/06/20 12:41:00;;;;;;;11.00;6.60;;;10.50;99.90;;;;;;5014378;28;20030;-72
2022/06/20 12:43:47;;;;;;;11.88;7.05;;;10.50;99.90;;;;;;5015114;28;20501;-72
2022/06/20 12:46:41;;;;;;;12.02;7.13;;;10.50;99.90;;;;;;4984918;28;20124;-71
2022/06/20 12:49:44;;;;;;;10.18;6.65;;;10.50;99.90;;;;;;5015445;28;20060;-71
2022/06/20 12:52:43;;;;;;;12.02;6.70;;;10.40;99.90;;;;;;5014139;28;20121;-72
2022/06/20 12:55:39;;;;;;;13.18;7.15;;;10.40;99.90;;;;;;5012569;28;20112;-72
2022/06/20 12:58:25;;;;;;;11.40;6.60;;;10.30;99.90;;;;;;5015093;28;20079;-71
2022/06/20 13:01:12;;;;;;;12.88;7.35;;;10.30;99.90;;;;;;5015632;28;20026;-72
2022/06/20 13:03:57;;;;;;;13.63;6.80;;;10.30;99.90;;;;;;5015333;28;20026;-73
2022/06/20 13:06:49;;;;;;;13.38;8.02;;;10.20;99.90;;;;;;5013753;28;20030;-73
2022/06/20 13:09:40;;;;;;;12.77;7.90;;;10.20;99.90;;;;;;5013847;28;20022;-74
2022/06/20 13:12:21;;;;;;;11.45;7.10;;;10.20;99.90;;;;;;5013677;28;20491;-74
2022/06/20 13:15:09;;;;;;;14.60;7.10;;;10.20;99.90;;;;;;5013643;28;20026;-72
2022/06/20 13:18:17;;;;;;;14.10;7.05;;;10.20;99.90;;;;;;5013641;28;20029;-73
2022/06/20 13:21:24;;;;;;;9.60;6.75;;;10.20;99.90;;;;;;4982472;28;20068;-74
2022/06/20 13:24:27;;;;;;;12.68;7.00;;;10.20;99.90;;;;;;4981682;28;20072;-74
2022/06/20 13:27:19;;;;;;;11.48;6.65;;;10.20;99.90;;;;;;5013403;28;20026;-74
2022/06/20 13:30:12;;;;;;;16.27;8.10;;;10.20;99.90;;;;;;5013411;28;20034;-74
2022/06/20 13:32:54;;;;;;;15.32;7.03;;;10.20;99.90;;;;;;5010592;28;20506;-73
2022/06/20 13:35:42;;;;;;;12.55;7.25;;;10.20;99.90;;;;;;5014924;28;20018;-74
2022/06/20 13:38:29;;;;;;;16.02;8.48;;;10.40;99.90;;;;;;5014772;28;20061;-74
2022/06/20 13:40:56;;;;;;;12.93;7.18;;;10.30;99.90;;;;;;5013186;28;20029;-73
2022/06/20 13:43:28;;;;;;;14.23;7.20;;;10.40;99.90;;;;;;5013081;28;20120;-74
2022/06/20 13:46:06;;;;;;;12.68;6.70;;;10.40;99.90;;;;;;5014685;28;20409;-74
2022/06/20 13:48:49;;;;;;;11.60;6.43;;;10.40;99.90;;;;;;5014493;28;20577;-73
2022/06/20 13:51:49;;;;;;;13.40;7.25;;;10.50;99.90;;;;;;5012990;28;20093;-73
2022/06/20 13:54:42;;;;;;;11.07;6.70;;;10.50;99.90;;;;;;5013077;28;20040;-74
2022/06/20 13:57:21;;;;;;;10.15;6.43;;;10.40;99.90;;;;;;5012627;28;20026;-72
2022/06/20 14:00:20;;;;;;;12.18;6.40;;;10.40;99.90;;;;;;5012866;28;20030;-71
2022/06/20 14:03:11;;;;;;;11.25;6.53;;;10.50;99.90;;;;;;5005371;28;20096;-71
2022/06/20 14:05:40;;;;;;;12.80;7.15;;;10.40;99.90;;;;;;5014017;28;20022;-71
2022/06/20 14:08:15;;;;;;;8.70;7.10;;;10.40;99.90;;;;;;5013833;28;20110;-71
2022/06/20 14:11:10;;;;;;;13.77;6.85;;;10.30;99.90;;;;;;5014135;28;20072;-71